Main page
METAR-TAF:

Airports :

London-Southend, England

London Southend Airport

latitude: 51-34N, longitude: 000-42E, elevation: 15 m

Current weather observation

The report was made 10 minutes ago, at 09:50 UTC
Wind 11 kt from the West/Southwest, varying between South/Southwest and West
Temperature 16°C
Humidity 55%
Pressure 1013 hPa
Visibility 10 km or more
Few clouds at a height of 3600 ft

METAR: EGMC 300950Z 24011KT 210V280 9999 FEW036 16/07 Q1013

Time: 11:00 (10:00 UTC)

Forecast

The report was made 2 hours and 1 minutes ago, at 07:59 UTC
Forecast valid from 30 at 09 UTC to 30 at 18 UTC
Wind 10 kt from the West/Southwest
Visibility 10 km or more
Few clouds at a height of 4500 ft
Probability 30% :
Temporary
from 30 at 10 UTC to 30 at 17 UTC
Visibility: 7000 m
rain showers

TAF: EGMC 300759Z 3009/3018 25010KT 9999 FEW045 PROB30 TEMPO 3010/3017 7000 SHRA

METAR-TAF

Weather observations and forecasts of more than 4000 airports (METAR and TAF reports).

The available stations are represented by yellow and red dots on the map.

Hover mouse over dot to see the name of the station.

Then click to see weather observations and forecasts.

To change the map : click on the green buttons with a black cross to zoom in, on the green button with a dash to zoom out, or on the green arrows for adjacent maps.


METAR-TAF: